createdAt,value
2023-04-16T00:00:27.857Z,11.73
2023-04-16T00:01:29.705Z,11.70
2023-04-16T00:02:31.654Z,11.70
2023-04-16T00:03:33.918Z,11.69
2023-04-16T00:04:36.047Z,11.69
2023-04-16T00:05:37.924Z,11.69
2023-04-16T00:06:39.877Z,11.68
2023-04-16T00:07:41.686Z,11.69
2023-04-16T00:08:43.512Z,11.69
2023-04-16T00:09:45.281Z,11.70
2023-04-16T00:10:47.076Z,11.70
2023-04-16T00:11:48.927Z,11.73
2023-04-16T00:12:50.729Z,11.73
2023-04-16T00:13:52.537Z,11.75
2023-04-16T00:14:54.336Z,11.75
2023-04-16T00:15:56.169Z,11.75
2023-04-16T00:16:58.032Z,11.75
2023-04-16T00:17:59.980Z,11.71
2023-04-16T00:19:01.784Z,11.71
2023-04-16T00:20:03.589Z,11.67
2023-04-16T00:21:05.409Z,11.66
2023-04-16T00:22:07.246Z,11.65
2023-04-16T00:23:09.054Z,11.65
2023-04-16T00:24:10.859Z,11.67
2023-04-16T00:25:12.661Z,11.65
2023-04-16T00:26:14.474Z,11.66
2023-04-16T00:27:16.321Z,11.66
2023-04-16T00:28:18.119Z,11.63
2023-04-16T00:29:19.822Z,11.64
2023-04-16T00:30:21.629Z,11.65
2023-04-16T00:31:23.486Z,11.64
2023-04-16T00:32:25.298Z,11.64
2023-04-16T00:33:27.187Z,11.64
2023-04-16T00:34:29.003Z,11.63
2023-04-16T00:35:30.818Z,11.64
2023-04-16T00:36:32.642Z,11.62
2023-04-16T00:37:34.461Z,11.62
2023-04-16T00:38:36.282Z,11.61
2023-04-16T00:39:38.078Z,11.61
2023-04-16T00:40:39.882Z,11.62
2023-04-16T00:41:42.100Z,11.60
2023-04-16T00:42:43.936Z,11.56
2023-04-16T00:43:45.752Z,11.56
2023-04-16T00:44:47.563Z,11.54
2023-04-16T00:45:49.357Z,11.53
2023-04-16T00:46:51.162Z,11.53
2023-04-16T00:47:53.047Z,11.54
2023-04-16T00:48:54.907Z,11.53
2023-04-16T00:49:56.716Z,11.52
2023-04-16T00:50:58.525Z,11.49
2023-04-16T00:52:00.320Z,11.46
2023-04-16T00:53:02.172Z,11.45
2023-04-16T00:54:03.979Z,11.43
2023-04-16T00:55:05.769Z,11.41
2023-04-16T00:56:07.676Z,11.40
2023-04-16T00:57:09.485Z,11.39
2023-04-16T00:58:11.341Z,11.39
2023-04-16T00:59:13.137Z,11.38
2023-04-16T01:00:14.949Z,11.40
2023-04-16T01:01:16.812Z,11.39
2023-04-16T01:02:18.725Z,11.39
2023-04-16T01:03:20.751Z,11.37
2023-04-16T01:04:22.897Z,11.35
2023-04-16T01:05:24.731Z,11.35
2023-04-16T01:06:26.533Z,11.36
2023-04-16T01:07:28.342Z,11.38
2023-04-16T01:08:30.241Z,11.39
2023-04-16T01:09:31.994Z,11.39
2023-04-16T01:10:33.794Z,11.38
2023-04-16T01:11:35.592Z,11.35
2023-04-16T01:12:37.398Z,11.34
2023-04-16T01:13:39.366Z,11.34
2023-04-16T01:14:41.349Z,11.34
2023-04-16T01:15:43.185Z,11.33
2023-04-16T01:16:45.067Z,11.34
2023-04-16T01:17:46.938Z,11.35
2023-04-16T01:18:48.729Z,11.35
2023-04-16T01:19:50.534Z,11.36
2023-04-16T01:20:52.336Z,11.36
2023-04-16T01:21:54.131Z,11.37
2023-04-16T01:22:55.955Z,11.36
2023-04-16T01:23:57.784Z,11.37
2023-04-16T01:24:59.605Z,11.37
2023-04-16T01:26:01.398Z,11.38
2023-04-16T01:27:03.200Z,11.36
2023-04-16T01:28:05.014Z,11.35
2023-04-16T01:29:06.914Z,11.36
2023-04-16T01:30:09.048Z,11.37
2023-04-16T01:31:10.922Z,11.36
2023-04-16T01:32:12.703Z,11.35
2023-04-16T01:33:14.474Z,11.34
2023-04-16T01:34:16.315Z,11.34
2023-04-16T01:35:18.149Z,11.32
2023-04-16T01:36:20.049Z,11.31
2023-04-16T01:37:21.841Z,11.30
2023-04-16T01:38:23.655Z,11.30
2023-04-16T01:39:25.504Z,11.30
2023-04-16T01:40:27.315Z,11.31
2023-04-16T01:41:29.114Z,11.27
2023-04-16T01:42:30.922Z,11.30
2023-04-16T01:43:32.724Z,11.28
2023-04-16T01:44:34.473Z,11.27
2023-04-16T01:45:36.296Z,11.26
2023-04-16T01:46:38.194Z,11.26
2023-04-16T01:47:40.062Z,11.26
2023-04-16T01:48:41.910Z,11.25
2023-04-16T01:49:43.759Z,11.25
2023-04-16T01:50:45.573Z,11.23
2023-04-16T01:51:47.384Z,11.22
2023-04-16T01:52:49.195Z,11.22
2023-04-16T01:53:50.997Z,11.21
2023-04-16T01:54:52.862Z,11.17
2023-04-16T01:55:54.666Z,11.17
2023-04-16T01:56:56.472Z,11.14
2023-04-16T01:57:58.267Z,11.12
2023-04-16T01:59:00.117Z,11.11
2023-04-16T02:00:01.928Z,11.12
2023-04-16T02:01:03.780Z,11.10
2023-04-16T02:02:05.601Z,11.11
2023-04-16T02:03:07.604Z,11.10
2023-04-16T02:04:09.706Z,11.09
2023-04-16T02:05:11.512Z,11.10
2023-04-16T02:06:13.462Z,11.12
2023-04-16T02:07:15.278Z,11.09
2023-04-16T02:08:17.087Z,11.09
2023-04-16T02:09:18.872Z,11.10
2023-04-16T02:10:20.707Z,11.11
2023-04-16T02:11:22.522Z,11.09
2023-04-16T02:12:24.334Z,11.09
2023-04-16T02:13:26.136Z,11.09
2023-04-16T02:14:27.922Z,11.10
2023-04-16T02:15:29.760Z,11.09
2023-04-16T02:16:31.641Z,11.07
2023-04-16T02:17:33.507Z,11.07
2023-04-16T02:18:35.278Z,11.08
2023-04-16T02:19:37.074Z,11.09
2023-04-16T02:20:38.922Z,11.10
2023-04-16T02:21:40.728Z,11.10
2023-04-16T02:22:42.541Z,11.10
2023-04-16T02:23:44.336Z,11.12
2023-04-16T02:24:46.153Z,11.11
2023-04-16T02:25:48.008Z,11.08
2023-04-16T02:26:49.817Z,11.07
2023-04-16T02:27:51.624Z,11.07
2023-04-16T02:28:53.421Z,11.07
2023-04-16T02:29:55.225Z,11.05
2023-04-16T02:30:57.057Z,11.02
2023-04-16T02:31:58.934Z,10.99
2023-04-16T02:33:00.826Z,10.98
2023-04-16T02:34:02.678Z,10.97
2023-04-16T02:35:04.481Z,10.96
2023-04-16T02:36:06.620Z,10.95
2023-04-16T02:37:08.308Z,10.95
2023-04-16T02:38:10.112Z,10.95
2023-04-16T02:39:11.904Z,10.95
2023-04-16T02:40:13.712Z,10.94
2023-04-16T02:41:15.550Z,10.92
2023-04-16T02:42:17.357Z,10.91
2023-04-16T02:43:19.157Z,10.90
2023-04-16T02:44:20.954Z,10.88
2023-04-16T02:45:22.789Z,10.88
2023-04-16T02:46:24.758Z,10.86
2023-04-16T02:47:26.795Z,10.86
2023-04-16T02:48:28.557Z,10.88
2023-04-16T02:49:30.366Z,10.88
2023-04-16T02:50:32.155Z,10.89
2023-04-16T02:51:33.989Z,10.85
2023-04-16T02:52:35.798Z,10.83
2023-04-16T02:53:37.602Z,10.82
2023-04-16T02:54:39.409Z,10.84
2023-04-16T02:55:41.206Z,10.85
2023-04-16T02:56:43.040Z,10.86
2023-04-16T02:57:44.831Z,10.84
2023-04-16T02:58:46.642Z,10.85
2023-04-16T02:59:48.438Z,10.86
2023-04-16T03:00:50.241Z,10.87
2023-04-16T03:01:52.218Z,10.88
2023-04-16T03:02:54.338Z,10.89
2023-04-16T03:03:56.330Z,10.85
2023-04-16T03:04:58.105Z,10.84
2023-04-16T03:05:59.910Z,10.82
2023-04-16T03:07:01.752Z,10.80
2023-04-16T03:08:03.558Z,10.79
2023-04-16T03:09:05.347Z,10.78
2023-04-16T03:10:07.266Z,10.79
2023-04-16T03:11:09.072Z,10.81
2023-04-16T03:12:10.911Z,10.80
2023-04-16T03:13:12.702Z,10.80
2023-04-16T03:14:14.503Z,10.79
2023-04-16T03:15:16.305Z,10.79
2023-04-16T03:16:18.142Z,10.78
2023-04-16T03:17:19.993Z,10.80
2023-04-16T03:18:21.753Z,10.81
2023-04-16T03:19:23.441Z,10.81
2023-04-16T03:20:25.263Z,10.81
2023-04-16T03:21:27.061Z,10.81
2023-04-16T03:22:28.890Z,10.79
2023-04-16T03:23:30.686Z,10.78
2023-04-16T03:24:32.484Z,10.81
2023-04-16T03:25:34.294Z,10.79
2023-04-16T03:26:36.099Z,10.80
2023-04-16T03:27:39.014Z,10.79
2023-04-16T03:28:40.817Z,10.80
2023-04-16T03:29:42.616Z,10.79
2023-04-16T03:30:44.425Z,10.81
2023-04-16T03:31:46.231Z,10.83
2023-04-16T03:32:48.130Z,10.86
2023-04-16T03:33:49.943Z,10.89
2023-04-16T03:34:51.746Z,10.92
2023-04-16T03:35:53.564Z,10.93
2023-04-16T03:36:55.369Z,10.94
2023-04-16T03:37:57.216Z,10.95
2023-04-16T03:38:59.013Z,10.96
2023-04-16T03:40:00.821Z,10.99
2023-04-16T03:41:02.641Z,10.97
2023-04-16T03:42:04.461Z,10.96
2023-04-16T03:43:06.308Z,10.98
2023-04-16T03:44:08.109Z,10.98
2023-04-16T03:45:09.903Z,10.97
2023-04-16T03:46:11.789Z,10.99
2023-04-16T03:47:13.620Z,11.02
2023-04-16T03:48:15.464Z,11.05
2023-04-16T03:49:17.263Z,11.07
2023-04-16T03:50:19.076Z,11.10
2023-04-16T03:51:20.886Z,11.12
2023-04-16T03:52:22.673Z,11.13
2023-04-16T03:53:24.514Z,11.15
2023-04-16T03:54:26.316Z,11.21
2023-04-16T03:55:28.119Z,11.24
2023-04-16T03:56:29.932Z,11.27
2023-04-16T03:57:31.724Z,11.31
2023-04-16T03:58:33.573Z,11.34
2023-04-16T03:59:35.366Z,11.38
2023-04-16T04:00:37.189Z,11.40
2023-04-16T04:01:39.020Z,11.42
2023-04-16T04:02:40.897Z,11.44
2023-04-16T04:03:43.046Z,11.46
2023-04-16T04:04:45.206Z,11.51
2023-04-16T04:05:47.029Z,11.52
2023-04-16T04:06:48.851Z,11.55
2023-04-16T04:07:50.657Z,11.57
2023-04-16T04:08:52.493Z,11.59
2023-04-16T04:09:54.280Z,11.58
2023-04-16T04:10:56.074Z,11.57
2023-04-16T04:11:57.884Z,11.59
2023-04-16T04:12:59.794Z,11.62
2023-04-16T04:14:01.509Z,11.65
2023-04-16T04:15:03.308Z,11.66
2023-04-16T04:16:05.120Z,11.68
2023-04-16T04:17:06.915Z,11.69
2023-04-16T04:18:08.725Z,11.72
2023-04-16T04:19:10.747Z,11.72
2023-04-16T04:20:13.078Z,11.70
2023-04-16T04:21:14.863Z,11.72
2023-04-16T04:22:16.673Z,11.75
2023-04-16T04:23:18.480Z,11.77
2023-04-16T04:24:20.317Z,11.77
2023-04-16T04:25:22.130Z,11.78
2023-04-16T04:26:23.965Z,11.78
2023-04-16T04:27:25.826Z,11.77
2023-04-16T04:28:27.636Z,11.79
2023-04-16T04:29:29.487Z,11.79
2023-04-16T04:30:31.272Z,11.81
2023-04-16T04:31:33.100Z,11.83
2023-04-16T04:32:34.935Z,11.83
2023-04-16T04:33:36.785Z,11.83
2023-04-16T04:34:38.639Z,11.85
2023-04-16T04:35:40.440Z,11.84
2023-04-16T04:36:42.243Z,11.86
2023-04-16T04:37:44.044Z,11.86
2023-04-16T04:38:45.858Z,11.88
2023-04-16T04:39:47.695Z,11.86
2023-04-16T04:40:49.487Z,11.87
2023-04-16T04:41:51.290Z,11.86
2023-04-16T04:42:53.101Z,11.78
2023-04-16T04:43:54.906Z,11.74
2023-04-16T04:44:56.739Z,11.70
2023-04-16T04:45:58.571Z,11.69
2023-04-16T04:47:00.443Z,11.72
2023-04-16T04:48:02.223Z,11.74
2023-04-16T04:49:04.074Z,11.74
2023-04-16T04:50:05.977Z,11.74
2023-04-16T04:51:07.781Z,11.75
2023-04-16T04:52:09.595Z,11.77
2023-04-16T04:53:11.407Z,11.78
2023-04-16T04:54:13.222Z,11.81
2023-04-16T04:55:15.072Z,11.81
2023-04-16T04:56:16.868Z,11.82
2023-04-16T04:57:18.691Z,11.82
2023-04-16T04:58:20.486Z,11.83
2023-04-16T04:59:22.300Z,11.86
2023-04-16T05:00:24.134Z,11.88
2023-04-16T05:01:25.993Z,11.91
2023-04-16T05:02:27.888Z,11.95
2023-04-16T05:03:29.829Z,11.96
2023-04-16T05:04:31.677Z,11.97
2023-04-16T05:05:33.513Z,11.98
2023-04-16T05:06:35.330Z,11.98
2023-04-16T05:07:37.135Z,11.95
2023-04-16T05:08:38.934Z,11.93
2023-04-16T05:09:40.734Z,11.88
2023-04-16T05:10:42.695Z,11.87
2023-04-16T05:11:44.501Z,11.88
2023-04-16T05:12:48.254Z,11.88
2023-04-16T05:13:49.922Z,11.90
2023-04-16T05:14:51.712Z,11.91
2023-04-16T05:15:53.776Z,11.92
2023-04-16T05:16:55.630Z,11.91
2023-04-16T05:17:57.499Z,11.89
2023-04-16T05:18:59.277Z,11.88
2023-04-16T05:20:01.091Z,11.90
2023-04-16T05:21:02.953Z,11.92
2023-04-16T05:22:04.752Z,11.94
2023-04-16T05:23:06.573Z,11.94
2023-04-16T05:24:08.390Z,11.96
2023-04-16T05:25:10.187Z,11.94
2023-04-16T05:26:12.031Z,11.95
2023-04-16T05:27:14.979Z,11.96
2023-04-16T05:28:16.744Z,11.96
2023-04-16T05:29:18.552Z,11.97
2023-04-16T05:30:20.370Z,11.99
2023-04-16T05:31:22.270Z,11.99
2023-04-16T05:32:24.124Z,11.97
2023-04-16T05:33:25.923Z,11.98
2023-04-16T05:34:27.770Z,12.00
2023-04-16T05:35:29.561Z,12.00
2023-04-16T05:36:31.399Z,11.99
2023-04-16T05:37:33.208Z,12.02
2023-04-16T05:38:35.018Z,12.04
2023-04-16T05:39:36.830Z,12.05
2023-04-16T05:40:38.649Z,12.09
2023-04-16T05:41:40.481Z,12.11
2023-04-16T05:42:42.276Z,12.15
2023-04-16T05:43:44.123Z,12.16
2023-04-16T05:44:45.938Z,12.19
2023-04-16T05:45:47.731Z,12.22
2023-04-16T05:46:49.564Z,12.20
2023-04-16T05:47:51.375Z,12.23
2023-04-16T05:48:53.203Z,12.24
2023-04-16T05:49:55.028Z,12.23
2023-04-16T05:50:56.822Z,12.21
2023-04-16T05:51:58.667Z,12.23
2023-04-16T05:53:00.477Z,12.25
2023-04-16T05:54:02.293Z,12.28
2023-04-16T05:55:04.115Z,12.31
2023-04-16T05:56:05.908Z,12.35
2023-04-16T05:57:07.746Z,12.37
2023-04-16T05:58:09.561Z,12.38
2023-04-16T05:59:11.561Z,12.38
2023-04-16T06:00:13.683Z,12.38
2023-04-16T06:01:15.493Z,12.39
2023-04-16T06:02:17.442Z,12.42
2023-04-16T06:03:19.296Z,12.45
2023-04-16T06:04:21.233Z,12.48
2023-04-16T06:05:23.123Z,12.51
2023-04-16T06:06:24.916Z,12.52
2023-04-16T06:07:26.644Z,12.54
2023-04-16T06:08:28.480Z,12.58
2023-04-16T06:09:30.192Z,12.63
2023-04-16T06:10:32.097Z,12.66
2023-04-16T06:11:35.801Z,12.70
2023-04-16T06:12:37.576Z,12.72
2023-04-16T06:13:39.460Z,12.74
2023-04-16T06:14:41.264Z,12.78
2023-04-16T06:15:43.097Z,12.83
2023-04-16T06:16:44.900Z,12.86
2023-04-16T06:17:46.762Z,12.86
2023-04-16T06:18:48.518Z,12.89
2023-04-16T06:19:50.330Z,12.90
2023-04-16T06:20:52.144Z,12.88
2023-04-16T06:21:53.960Z,12.90
2023-04-16T06:22:55.799Z,12.92
2023-04-16T06:23:57.600Z,12.94
2023-04-16T06:24:59.412Z,12.98
2023-04-16T06:26:01.221Z,13.00
2023-04-16T06:27:03.057Z,13.03
2023-04-16T06:28:04.867Z,13.08
2023-04-16T06:29:06.724Z,13.11
2023-04-16T06:30:08.600Z,13.11
2023-04-16T06:31:10.449Z,13.12
2023-04-16T06:32:12.225Z,13.14
2023-04-16T06:33:14.091Z,13.10
2023-04-16T06:34:15.913Z,13.10
2023-04-16T06:35:18.843Z,13.10
2023-04-16T06:36:20.637Z,13.10
2023-04-16T06:37:22.447Z,13.09
2023-04-16T06:38:24.286Z,13.10
2023-04-16T06:39:26.119Z,13.08
2023-04-16T06:40:27.981Z,13.10
2023-04-16T06:41:29.747Z,13.12
2023-04-16T06:42:31.536Z,13.15
2023-04-16T06:43:33.361Z,13.20
2023-04-16T06:44:35.167Z,13.20
2023-04-16T06:45:36.989Z,13.20
2023-04-16T06:46:38.822Z,13.24
2023-04-16T06:47:40.710Z,13.28
2023-04-16T06:48:42.553Z,13.29
2023-04-16T06:49:44.342Z,13.30
2023-04-16T06:50:46.148Z,13.33
2023-04-16T06:51:47.947Z,13.36
2023-04-16T06:52:49.677Z,13.39
2023-04-16T06:53:51.799Z,13.42
2023-04-16T06:54:53.505Z,13.45
2023-04-16T06:55:55.200Z,13.47
2023-04-16T06:56:57.021Z,13.50
2023-04-16T06:57:58.881Z,13.53
2023-04-16T06:59:00.735Z,13.54
2023-04-16T07:00:02.547Z,13.58
2023-04-16T07:01:04.370Z,13.59
2023-04-16T07:02:06.204Z,13.60
2023-04-16T07:03:08.348Z,13.63
2023-04-16T07:04:10.403Z,13.64
2023-04-16T07:05:12.269Z,13.65
2023-04-16T07:06:14.181Z,13.68
2023-04-16T07:07:15.966Z,13.69
2023-04-16T07:08:17.767Z,13.68
2023-04-16T07:09:19.622Z,13.68
2023-04-16T07:10:21.441Z,13.68
2023-04-16T07:11:23.253Z,13.68
2023-04-16T07:12:25.051Z,13.68
2023-04-16T07:13:26.871Z,13.67
2023-04-16T07:14:28.715Z,13.71
2023-04-16T07:15:30.511Z,13.72
2023-04-16T07:16:32.329Z,13.75
2023-04-16T07:17:34.130Z,13.78
2023-04-16T07:18:35.985Z,13.77
2023-04-16T07:19:37.811Z,13.77
2023-04-16T07:20:39.783Z,13.76
2023-04-16T07:21:41.591Z,13.81
2023-04-16T07:22:43.446Z,13.82
2023-04-16T07:23:45.234Z,13.84
2023-04-16T07:24:46.991Z,13.86
2023-04-16T07:25:48.776Z,13.88
2023-04-16T07:26:50.600Z,13.90
2023-04-16T07:27:55.424Z,13.90
2023-04-16T07:28:57.329Z,13.91
2023-04-16T07:29:59.168Z,13.89
2023-04-16T07:31:01.007Z,13.88
2023-04-16T07:32:02.883Z,13.88
2023-04-16T07:33:04.668Z,13.88
2023-04-16T07:34:06.525Z,13.89
2023-04-16T07:35:08.414Z,13.91
2023-04-16T07:36:10.603Z,13.92
2023-04-16T07:37:12.405Z,13.91
2023-04-16T07:38:14.239Z,13.92
2023-04-16T07:39:16.060Z,13.96
2023-04-16T07:40:18.021Z,13.93
2023-04-16T07:41:19.821Z,13.95
2023-04-16T07:42:21.721Z,13.97
2023-04-16T07:43:23.590Z,13.99
2023-04-16T07:44:25.412Z,14.01
2023-04-16T07:45:27.264Z,14.05
2023-04-16T07:46:39.384Z,14.07
2023-04-16T07:47:32.717Z,14.09
2023-04-16T07:48:34.519Z,14.13
2023-04-16T07:49:36.445Z,14.16
2023-04-16T07:50:38.271Z,14.19
2023-04-16T07:51:40.073Z,14.22
2023-04-16T07:52:41.877Z,14.25
2023-04-16T07:53:43.695Z,14.28
2023-04-16T07:54:45.513Z,14.31
2023-04-16T07:55:47.356Z,14.33
2023-04-16T07:56:49.167Z,14.34
2023-04-16T07:57:50.969Z,14.36
2023-04-16T07:58:52.781Z,14.40
2023-04-16T07:59:54.583Z,14.44
2023-04-16T08:00:56.489Z,14.47
2023-04-16T08:01:58.292Z,14.53
2023-04-16T08:03:00.242Z,14.56
2023-04-16T08:04:02.256Z,14.60
2023-04-16T08:05:04.237Z,14.61
2023-04-16T08:06:06.236Z,14.62
2023-04-16T08:07:08.043Z,14.63
2023-04-16T08:08:09.938Z,14.64
2023-04-16T08:09:11.871Z,14.67
2023-04-16T08:10:14.477Z,14.73
2023-04-16T08:11:16.414Z,14.75
2023-04-16T08:12:18.238Z,14.79
2023-04-16T08:13:20.034Z,14.83
2023-04-16T08:14:21.859Z,14.88
2023-04-16T08:15:23.681Z,14.92
2023-04-16T08:16:25.585Z,14.95
2023-04-16T08:17:27.362Z,15.01
2023-04-16T08:18:29.151Z,15.01
2023-04-16T08:19:30.948Z,15.02
2023-04-16T08:20:32.878Z,15.04
2023-04-16T08:21:34.707Z,15.06
2023-04-16T08:22:36.518Z,15.09
2023-04-16T08:23:38.310Z,15.15
2023-04-16T08:24:40.167Z,15.18
2023-04-16T08:25:41.867Z,15.19
2023-04-16T08:26:43.708Z,15.21
2023-04-16T08:27:45.537Z,15.27
2023-04-16T08:28:47.333Z,15.24
2023-04-16T08:29:49.172Z,15.26
2023-04-16T08:30:51.110Z,15.27
2023-04-16T08:31:53.164Z,15.29
2023-04-16T08:32:55.028Z,15.29
2023-04-16T08:33:56.807Z,15.31
2023-04-16T08:34:58.607Z,15.31
2023-04-16T08:36:00.421Z,15.34
2023-04-16T08:37:02.264Z,15.37
2023-04-16T08:38:04.079Z,15.38
2023-04-16T08:39:05.897Z,15.40
2023-04-16T08:40:07.810Z,15.41
2023-04-16T08:41:09.610Z,15.40
2023-04-16T08:42:11.455Z,15.39
2023-04-16T08:43:13.267Z,15.38
2023-04-16T08:44:15.069Z,15.37
2023-04-16T08:45:16.880Z,15.38
2023-04-16T08:46:18.694Z,15.39
2023-04-16T08:47:20.673Z,15.42
2023-04-16T08:48:22.552Z,15.44
2023-04-16T08:49:24.350Z,15.46
2023-04-16T08:50:26.169Z,15.46
2023-04-16T08:51:27.968Z,15.45
2023-04-16T08:52:29.815Z,15.47
2023-04-16T08:53:31.627Z,15.51
2023-04-16T08:54:33.462Z,15.52
2023-04-16T08:55:35.574Z,15.52
2023-04-16T08:56:37.425Z,15.52
2023-04-16T08:57:39.227Z,15.55
2023-04-16T08:58:41.029Z,15.56
2023-04-16T08:59:42.830Z,15.57
2023-04-16T09:00:44.654Z,15.59
2023-04-16T09:01:46.576Z,15.62
2023-04-16T09:02:48.664Z,15.63
2023-04-16T09:03:50.741Z,15.64
2023-04-16T09:04:52.783Z,15.65
2023-04-16T09:05:54.739Z,15.69
2023-04-16T09:06:56.713Z,15.68
2023-04-16T09:07:58.529Z,15.70
2023-04-16T09:09:00.343Z,15.73
2023-04-16T09:10:02.168Z,15.75
2023-04-16T09:11:03.955Z,15.76
2023-04-16T09:12:05.770Z,15.77
2023-04-16T09:13:07.590Z,15.77
2023-04-16T09:14:09.418Z,15.76
2023-04-16T09:15:11.214Z,15.76
2023-04-16T09:16:13.029Z,15.75
2023-04-16T09:17:14.782Z,15.75
2023-04-16T09:18:16.751Z,15.74
2023-04-16T09:19:18.564Z,15.77
2023-04-16T09:20:20.430Z,15.79
2023-04-16T09:21:23.890Z,15.80
2023-04-16T09:22:25.925Z,15.83
2023-04-16T09:23:27.778Z,15.85
2023-04-16T09:24:29.575Z,15.85
2023-04-16T09:25:31.420Z,15.85
2023-04-16T09:26:33.535Z,15.84
2023-04-16T09:27:35.346Z,15.85
2023-04-16T09:28:37.173Z,15.85
2023-04-16T09:29:38.982Z,15.86
2023-04-16T09:30:40.797Z,15.88
2023-04-16T09:31:42.666Z,15.92
2023-04-16T09:32:44.513Z,15.94
2023-04-16T09:33:46.438Z,15.95
2023-04-16T09:34:48.249Z,15.95
2023-04-16T09:35:50.057Z,15.96
2023-04-16T09:36:51.875Z,15.96
2023-04-16T09:37:53.667Z,15.98
2023-04-16T09:38:57.551Z,15.99
2023-04-16T09:39:59.113Z,16.00
2023-04-16T09:41:00.900Z,16.00
2023-04-16T09:42:02.706Z,16.01
2023-04-16T09:43:04.527Z,16.02
2023-04-16T09:44:06.375Z,16.04
2023-04-16T09:45:08.168Z,16.05
2023-04-16T09:46:10.318Z,16.09
2023-04-16T09:47:12.091Z,16.11
2023-04-16T09:48:13.881Z,16.12
2023-04-16T09:49:15.745Z,16.18
2023-04-16T09:50:18.647Z,16.19
2023-04-16T09:51:20.802Z,16.20
2023-04-16T09:52:22.611Z,16.21
2023-04-16T09:53:24.404Z,16.23
2023-04-16T09:54:26.253Z,16.24
2023-04-16T09:55:28.127Z,16.26
2023-04-16T09:56:29.938Z,16.27
2023-04-16T09:57:31.794Z,16.27
2023-04-16T09:58:33.665Z,16.28
2023-04-16T09:59:35.512Z,16.28
2023-04-16T10:00:43.206Z,16.30
2023-04-16T10:01:41.291Z,16.33
2023-04-16T10:02:43.231Z,16.34
2023-04-16T10:03:45.269Z,16.35
2023-04-16T10:04:47.545Z,16.34
2023-04-16T10:05:49.608Z,16.35
2023-04-16T10:06:51.455Z,16.38
2023-04-16T10:07:53.218Z,16.37
2023-04-16T10:08:55.161Z,16.38
2023-04-16T10:09:56.902Z,16.38
2023-04-16T10:10:58.813Z,16.39
2023-04-16T10:12:00.528Z,16.42
2023-04-16T10:13:02.368Z,16.41
2023-04-16T10:14:04.176Z,16.42
2023-04-16T10:15:06.029Z,16.44
2023-04-16T10:16:07.832Z,16.45
2023-04-16T10:17:09.777Z,16.47
2023-04-16T10:18:11.769Z,16.48
2023-04-16T10:19:14.634Z,16.48
2023-04-16T10:20:17.276Z,16.50
2023-04-16T10:21:19.187Z,16.52
2023-04-16T10:22:21.004Z,16.53
2023-04-16T10:23:22.831Z,16.55
2023-04-16T10:24:24.621Z,16.58
2023-04-16T10:25:26.517Z,16.60
2023-04-16T10:26:28.339Z,16.62
2023-04-16T10:27:30.143Z,16.61
2023-04-16T10:28:31.945Z,16.63
2023-04-16T10:29:33.789Z,16.65
2023-04-16T10:30:35.809Z,16.65
2023-04-16T10:31:37.612Z,16.66
2023-04-16T10:32:39.427Z,16.65
2023-04-16T10:33:41.203Z,16.65
2023-04-16T10:34:43.109Z,16.65
2023-04-16T10:35:46.835Z,16.65
2023-04-16T10:36:48.649Z,16.64
2023-04-16T10:37:50.420Z,16.66
2023-04-16T10:38:52.273Z,16.65
2023-04-16T10:39:54.118Z,16.66
2023-04-16T10:40:55.968Z,16.68
2023-04-16T10:41:57.859Z,16.66
2023-04-16T10:42:59.656Z,16.67
2023-04-16T10:44:01.517Z,16.69
2023-04-16T10:45:03.329Z,16.68
2023-04-16T10:46:05.391Z,16.69
2023-04-16T10:47:07.324Z,16.68
2023-04-16T10:48:09.118Z,16.66
2023-04-16T10:49:11.207Z,16.66
2023-04-16T10:50:13.489Z,16.64
2023-04-16T10:51:15.318Z,16.63
2023-04-16T10:52:17.454Z,16.65
2023-04-16T10:53:19.321Z,16.66
2023-04-16T10:54:21.245Z,16.66
2023-04-16T10:55:23.070Z,16.64
2023-04-16T10:56:24.931Z,16.64
2023-04-16T10:57:26.712Z,16.66
2023-04-16T10:58:28.540Z,16.66
2023-04-16T10:59:30.333Z,16.69
2023-04-16T11:00:32.471Z,16.70
2023-04-16T11:01:34.334Z,16.69
2023-04-16T11:02:36.312Z,16.69
2023-04-16T11:03:38.482Z,16.70
2023-04-16T11:04:40.436Z,16.72
2023-04-16T11:05:42.328Z,16.74
2023-04-16T11:06:44.271Z,16.75
2023-04-16T11:07:46.082Z,16.76
2023-04-16T11:08:54.399Z,16.74
2023-04-16T11:09:51.551Z,16.74
2023-04-16T11:10:53.361Z,16.76
2023-04-16T11:11:55.230Z,16.76
2023-04-16T11:12:57.030Z,16.78
2023-04-16T11:13:58.894Z,16.78
2023-04-16T11:15:00.749Z,16.82
2023-04-16T11:16:02.680Z,16.84
2023-04-16T11:17:04.462Z,16.86
2023-04-16T11:18:06.338Z,16.89
2023-04-16T11:19:08.197Z,16.90
2023-04-16T11:20:19.245Z,16.91
2023-04-16T11:21:13.784Z,16.92
2023-04-16T11:22:15.635Z,16.93
2023-04-16T11:23:17.449Z,16.96
2023-04-16T11:24:19.256Z,16.96
2023-04-16T11:25:21.184Z,16.97
2023-04-16T11:26:22.979Z,16.99
2023-04-16T11:27:24.851Z,16.99
2023-04-16T11:28:26.648Z,16.98
2023-04-16T11:29:28.459Z,16.99
2023-04-16T11:30:30.255Z,17.02
2023-04-16T11:31:32.147Z,17.04
2023-04-16T11:32:34.307Z,17.05
2023-04-16T11:33:36.112Z,17.05
2023-04-16T11:34:37.958Z,17.06
2023-04-16T11:35:39.779Z,17.06
2023-04-16T11:36:41.566Z,17.05
2023-04-16T11:37:43.413Z,17.04
2023-04-16T11:38:45.217Z,17.04
2023-04-16T11:39:47.017Z,17.05
2023-04-16T11:40:48.858Z,17.06
2023-04-16T11:41:50.655Z,17.07
2023-04-16T11:42:52.488Z,17.08
2023-04-16T11:43:54.325Z,17.08
2023-04-16T11:44:56.179Z,17.08
2023-04-16T11:45:57.935Z,17.08
2023-04-16T11:46:59.780Z,17.08
2023-04-16T11:48:01.567Z,17.06
2023-04-16T11:49:03.394Z,17.06
2023-04-16T11:50:05.308Z,17.08
2023-04-16T11:51:07.114Z,17.09
2023-04-16T11:52:08.808Z,17.12
2023-04-16T11:53:10.647Z,17.10
2023-04-16T11:54:12.457Z,17.11
2023-04-16T11:55:14.274Z,17.14
2023-04-16T11:56:17.110Z,17.15
2023-04-16T11:57:18.898Z,17.14
2023-04-16T11:58:20.741Z,17.15
2023-04-16T11:59:24.357Z,17.15
2023-04-16T12:00:26.174Z,17.17
2023-04-16T12:01:27.998Z,17.18
2023-04-16T12:02:29.899Z,17.19
2023-04-16T12:03:31.912Z,17.19
2023-04-16T12:04:34.059Z,17.18
2023-04-16T12:05:36.048Z,17.18
2023-04-16T12:06:37.863Z,17.19
2023-04-16T12:07:39.678Z,17.19
2023-04-16T12:08:41.515Z,17.18
2023-04-16T12:09:43.329Z,17.19
2023-04-16T12:10:45.138Z,17.17
2023-04-16T12:11:46.951Z,17.18
2023-04-16T12:12:48.758Z,17.17
2023-04-16T12:13:50.588Z,17.17
2023-04-16T12:14:52.382Z,17.16
2023-04-16T12:15:54.184Z,17.16
2023-04-16T12:16:56.020Z,17.16
2023-04-16T12:17:57.910Z,17.14
2023-04-16T12:18:59.746Z,17.13
2023-04-16T12:20:01.547Z,17.09
2023-04-16T12:21:03.356Z,17.09
2023-04-16T12:22:05.169Z,17.09
2023-04-16T12:23:06.967Z,17.09
2023-04-16T12:24:08.800Z,17.11
2023-04-16T12:25:10.636Z,17.10
2023-04-16T12:26:12.923Z,17.13
2023-04-16T12:27:14.830Z,17.14
2023-04-16T12:28:16.636Z,17.14
2023-04-16T12:29:18.396Z,17.14
2023-04-16T12:30:20.220Z,17.16
2023-04-16T12:31:22.093Z,17.18
2023-04-16T12:32:23.961Z,17.18
2023-04-16T12:33:25.757Z,17.19
2023-04-16T12:34:48.500Z,17.18
2023-04-16T12:35:31.266Z,17.18
2023-04-16T12:36:33.068Z,17.19
2023-04-16T12:37:34.860Z,17.20
2023-04-16T12:38:36.677Z,17.21
2023-04-16T12:39:38.547Z,17.23
2023-04-16T12:40:40.632Z,17.25
2023-04-16T12:41:42.443Z,17.24
2023-04-16T12:42:44.253Z,17.25
2023-04-16T12:43:45.962Z,17.24
2023-04-16T12:44:47.805Z,17.24
2023-04-16T12:45:49.572Z,17.24
2023-04-16T12:46:51.493Z,17.26
2023-04-16T12:47:53.420Z,17.28
2023-04-16T12:48:55.166Z,17.28
2023-04-16T12:49:57.016Z,17.26
2023-04-16T12:50:58.903Z,17.27
2023-04-16T12:52:00.714Z,17.25
2023-04-16T12:53:02.532Z,17.24
2023-04-16T12:54:04.333Z,17.24
2023-04-16T12:55:06.177Z,17.23
2023-04-16T12:56:08.329Z,17.23
2023-04-16T12:57:10.107Z,17.22
2023-04-16T12:58:12.690Z,17.22
2023-04-16T12:59:14.593Z,17.21
2023-04-16T13:00:16.552Z,17.23
2023-04-16T13:01:18.390Z,17.25
2023-04-16T13:02:20.300Z,17.25
2023-04-16T13:03:22.448Z,17.27
2023-04-16T13:04:25.966Z,17.30
2023-04-16T13:05:28.065Z,17.29
2023-04-16T13:06:29.865Z,17.29
2023-04-16T13:07:31.679Z,17.28
2023-04-16T13:08:33.494Z,17.26
2023-04-16T13:09:36.170Z,17.26
2023-04-16T13:10:38.556Z,17.26
2023-04-16T13:11:40.374Z,17.24
2023-04-16T13:12:42.189Z,17.24
2023-04-16T13:13:44.016Z,17.25
2023-04-16T13:14:45.800Z,17.26
2023-04-16T13:15:47.629Z,17.26
2023-04-16T13:16:49.520Z,17.27